CheckWX is a tool to help pilots better visualize weather data.  It is not intended as a substitute for an official pre-flight weather briefing.

00:41:24 UTC

KMLU TAF
Monroe Regional Airport
Monroe, Louisiana, USA
KMLU 262340Z 2700/2724 36010KT P6SM FEW050 FM270300 VRB03KT P6SM SKC TEMPO 2710/2713 00000KT 5SM BR FM271500 07005KT P6SM SCT250 FM271800 11005KT P6SM SKC

Mar-27@
00:00 UTC

Mar-27 @ 00:00 UTC

Mar-27@
03:00 UTC

Mar-27 @ 03:00 UTC

KMLU 262340Z 2700/2724 36010KT P6SM FEW050
Wind
  • 360° at 10 KTS
Cloud Levels
  • Few at 5,000' AGL

Mar-27@
03:00 UTC

Mar-27 @ 03:00 UTC

Mar-27@
15:00 UTC

Mar-27 @ 15:00 UTC

FM270300 VRB03KT P6SM SKC

From

From Standard forecast or significant change

Wind
  • Variable at 3 KTS
Cloud Levels
  • Clear skies

Mar-27@
10:00 UTC

Mar-27 @ 10:00 UTC

Mar-27@
13:00 UTC

Mar-27 @ 13:00 UTC

TEMPO 2710/2713 00000KT 5SM BR

Temporary

Temporary Changes expected for less than half the time period

Conditions
Mist

Mar-27@
15:00 UTC

Mar-27 @ 15:00 UTC

Mar-27@
18:00 UTC

Mar-27 @ 18:00 UTC

FM271500 07005KT P6SM SCT250

From

From Standard forecast or significant change

Wind
  • 070° at 5 KTS
Cloud Levels
  • Scattered at 25,000' AGL

Mar-27@
18:00 UTC

Mar-27 @ 18:00 UTC

Mar-28@
00:00 UTC

Mar-28 @ 00:00 UTC

FM271800 11005KT P6SM SKC

From

From Standard forecast or significant change

Wind
  • 110° at 5 KTS
Cloud Levels
  • Clear skies